Time;durP1;ratioP1;P1;durP2;ratioP2;P2;SDS_P1;SDS_P2;PMS_P1;PMS_P2;Temp;Humidity;BMP_temperature;BMP_pressure;BME280_temperature;BME280_humidity;BME280_pressure;Samples;Min_cycle;Max_cycle;Signal;HPM_P1;HPM_P2
2023/12/27 00:01:15;;;;;;;16.42;10.82;;;;;;;;;;5073921;28;20032;-45
2023/12/27 00:03:41;;;;;;;15.35;12.02;;;;;;;;;;5060185;28;20028;-45
2023/12/27 00:06:06;;;;;;;19.30;11.75;;;;;;;;;;5074214;28;20032;-45
2023/12/27 00:08:31;;;;;;;17.48;12.90;;;;;;;;;;5075008;28;20063;-48
2023/12/27 00:10:57;;;;;;;18.35;11.20;;;;;;;;;;5083186;28;20028;-48
2023/12/27 00:13:22;;;;;;;15.43;12.00;;;;;;;;;;5055678;28;20041;-44
2023/12/27 00:15:47;;;;;;;16.58;10.20;;;;;;;;;;5080388;28;20016;-49
2023/12/27 00:18:17;;;;;;;15.18;10.70;;;;;;;;;;5071325;28;20062;-45
2023/12/27 00:20:43;;;;;;;14.25;10.75;;;;;;;;;;5066069;28;20013;-44
2023/12/27 00:23:08;;;;;;;15.02;10.38;;;;;;;;;;5076772;28;20039;-47
2023/12/27 00:25:34;;;;;;;15.05;10.63;;;;;;;;;;5076697;28;20157;-46
2023/12/27 00:27:59;;;;;;;13.57;9.88;;;;;;;;;;5079212;28;20024;-46
2023/12/27 00:30:24;;;;;;;14.35;9.70;;;;;;;;;;5076139;28;20027;-49
2023/12/27 00:32:50;;;;;;;14.15;9.85;;;;;;;;;;5072460;28;20028;-46
2023/12/27 00:35:16;;;;;;;12.35;9.50;;;;;;;;;;5074408;28;20064;-47
2023/12/27 00:37:41;;;;;;;12.07;10.25;;;;;;;;;;5080175;28;20032;-45
2023/12/27 00:40:07;;;;;;;14.18;11.82;;;;;;;;;;5075188;28;20040;-49
2023/12/27 00:42:33;;;;;;;14.30;11.57;;;;;;;;;;5073929;28;20096;-45
2023/12/27 00:44:58;;;;;;;12.50;9.90;;;;;;;;;;5076310;28;20029;-49
2023/12/27 00:47:23;;;;;;;11.38;8.60;;;;;;;;;;5065774;28;20020;-45
2023/12/27 00:49:49;;;;;;;14.20;9.02;;;;;;;;;;5069351;28;20033;-46
2023/12/27 00:52:14;;;;;;;12.73;9.32;;;;;;;;;;5074307;28;20113;-47
2023/12/27 00:54:40;;;;;;;13.80;11.43;;;;;;;;;;5079381;28;20049;-46
2023/12/27 00:57:05;;;;;;;13.55;9.68;;;;;;;;;;5082087;28;20016;-47
2023/12/27 00:59:30;;;;;;;13.35;8.88;;;;;;;;;;5076290;28;20466;-47
2023/12/27 01:01:56;;;;;;;16.23;10.68;;;;;;;;;;5076003;28;20115;-46
2023/12/27 01:04:21;;;;;;;12.55;10.02;;;;;;;;;;5076462;28;20055;-45
2023/12/27 01:06:46;;;;;;;14.93;10.45;;;;;;;;;;5080858;28;20040;-44
2023/12/27 01:09:12;;;;;;;15.48;10.00;;;;;;;;;;5078922;28;20033;-48
2023/12/27 01:11:37;;;;;;;14.85;10.05;;;;;;;;;;5077992;28;20090;-46
2023/12/27 01:14:03;;;;;;;12.52;9.63;;;;;;;;;;5076685;28;20032;-49
2023/12/27 01:16:28;;;;;;;12.18;10.00;;;;;;;;;;5077593;28;20027;-47
2023/12/27 01:18:54;;;;;;;14.60;8.77;;;;;;;;;;5082541;28;20042;-46
2023/12/27 01:21:19;;;;;;;11.48;9.45;;;;;;;;;;5080063;28;20043;-47
2023/12/27 01:23:44;;;;;;;10.15;9.05;;;;;;;;;;5088426;28;20123;-46
2023/12/27 01:26:10;;;;;;;11.40;8.77;;;;;;;;;;5082927;28;20028;-52
2023/12/27 01:28:36;;;;;;;12.45;8.85;;;;;;;;;;5080288;28;20082;-45
2023/12/27 01:31:01;;;;;;;12.27;7.68;;;;;;;;;;5074752;28;20022;-47
2023/12/27 01:33:27;;;;;;;11.25;8.93;;;;;;;;;;5079867;28;20036;-46
2023/12/27 01:35:53;;;;;;;11.35;8.45;;;;;;;;;;5084023;28;20524;-47
2023/12/27 01:38:18;;;;;;;10.40;7.75;;;;;;;;;;5072012;28;20033;-45
2023/12/27 01:40:49;;;;;;;12.63;8.63;;;;;;;;;;5077763;28;20016;-44
2023/12/27 01:43:14;;;;;;;11.20;8.23;;;;;;;;;;5075948;28;20515;-45
2023/12/27 01:45:40;;;;;;;13.73;9.00;;;;;;;;;;5076971;28;20134;-47
2023/12/27 01:48:05;;;;;;;12.00;8.52;;;;;;;;;;5092859;28;20024;-46
2023/12/27 01:50:31;;;;;;;10.80;8.15;;;;;;;;;;5073608;28;20024;-46
2023/12/27 01:52:56;;;;;;;12.40;8.07;;;;;;;;;;5076982;28;20076;-48
2023/12/27 01:55:22;;;;;;;12.18;8.45;;;;;;;;;;5082203;28;20016;-47
2023/12/27 01:57:47;;;;;;;10.27;7.38;;;;;;;;;;5076311;28;20039;-49
2023/12/27 02:00:14;;;;;;;12.43;9.05;;;;;;;;;;5078932;28;20032;-46
2023/12/27 02:02:40;;;;;;;12.00;8.43;;;;;;;;;;5084029;28;20063;-48
2023/12/27 02:05:06;;;;;;;11.35;8.55;;;;;;;;;;5074935;28;20380;-48
2023/12/27 02:07:32;;;;;;;12.27;7.18;;;;;;;;;;5080500;28;20026;-44
2023/12/27 02:09:58;;;;;;;10.35;6.93;;;;;;;;;;5072813;28;20481;-49
2023/12/27 02:12:29;;;;;;;10.27;7.65;;;;;;;;;;5076337;28;20028;-45
2023/12/27 02:14:54;;;;;;;9.77;7.07;;;;;;;;;;5073408;28;20041;-46
2023/12/27 02:17:22;;;;;;;11.25;7.70;;;;;;;;;;5083078;28;20024;-49
2023/12/27 02:19:47;;;;;;;10.45;7.55;;;;;;;;;;5073486;28;20661;-48
2023/12/27 02:22:19;;;;;;;11.02;7.05;;;;;;;;;;5076086;28;20085;-47
2023/12/27 02:24:47;;;;;;;9.50;6.53;;;;;;;;;;5078684;28;20072;-51
2023/12/27 02:27:12;;;;;;;11.25;6.90;;;;;;;;;;5069283;28;20024;-48
2023/12/27 02:29:38;;;;;;;12.93;7.82;;;;;;;;;;5084512;28;20041;-46
2023/12/27 02:32:03;;;;;;;8.02;6.20;;;;;;;;;;5087762;28;20094;-46
2023/12/27 02:34:29;;;;;;;9.75;6.72;;;;;;;;;;5081011;28;20029;-46
2023/12/27 02:36:54;;;;;;;9.27;7.05;;;;;;;;;;5078772;28;20024;-45
2023/12/27 02:39:19;;;;;;;8.60;7.13;;;;;;;;;;5075432;28;20028;-45
2023/12/27 02:41:45;;;;;;;11.88;6.65;;;;;;;;;;5073568;28;20036;-45
2023/12/27 02:44:10;;;;;;;10.20;7.40;;;;;;;;;;5075089;28;20036;-45
2023/12/27 02:46:36;;;;;;;9.93;6.00;;;;;;;;;;5085347;28;20439;-44
2023/12/27 02:49:01;;;;;;;8.10;6.50;;;;;;;;;;5075599;28;20037;-46
2023/12/27 02:51:26;;;;;;;9.63;7.13;;;;;;;;;;5077081;28;20036;-49
2023/12/27 02:53:52;;;;;;;7.13;5.05;;;;;;;;;;5058097;28;20047;-49
2023/12/27 02:56:17;;;;;;;9.00;5.22;;;;;;;;;;5080333;28;20027;-48
2023/12/27 02:58:43;;;;;;;7.88;5.88;;;;;;;;;;5078316;28;20032;-46
2023/12/27 03:01:08;;;;;;;9.10;6.25;;;;;;;;;;5076329;28;20031;-45
2023/12/27 03:03:34;;;;;;;7.25;5.40;;;;;;;;;;5076688;28;20037;-46
2023/12/27 03:05:59;;;;;;;9.88;6.35;;;;;;;;;;5076930;28;20030;-46
2023/12/27 03:08:25;;;;;;;11.35;7.03;;;;;;;;;;5074261;28;20098;-47
2023/12/27 03:10:50;;;;;;;7.22;6.50;;;;;;;;;;5080676;28;20024;-46
2023/12/27 03:13:15;;;;;;;9.35;6.82;;;;;;;;;;5079412;28;20086;-45
2023/12/27 03:15:41;;;;;;;9.95;7.13;;;;;;;;;;5071489;28;20023;-45
2023/12/27 03:18:06;;;;;;;8.45;6.68;;;;;;;;;;5075663;28;20035;-47
2023/12/27 03:20:32;;;;;;;8.75;6.40;;;;;;;;;;5073955;28;20027;-46
2023/12/27 03:22:57;;;;;;;11.65;7.43;;;;;;;;;;5081502;28;20027;-48
2023/12/27 03:25:22;;;;;;;10.07;7.43;;;;;;;;;;5078677;28;20093;-46
2023/12/27 03:27:48;;;;;;;8.82;6.50;;;;;;;;;;5077880;28;20115;-49
2023/12/27 03:30:13;;;;;;;8.82;7.05;;;;;;;;;;5075001;28;20052;-49
2023/12/27 03:32:39;;;;;;;7.72;6.63;;;;;;;;;;5074273;28;20025;-44
2023/12/27 03:35:04;;;;;;;10.20;7.05;;;;;;;;;;5087788;28;21139;-45
2023/12/27 03:37:30;;;;;;;8.23;5.90;;;;;;;;;;5080000;28;20043;-44
2023/12/27 03:39:55;;;;;;;11.57;7.80;;;;;;;;;;5074938;28;20041;-45
2023/12/27 03:42:20;;;;;;;12.55;7.72;;;;;;;;;;5074742;28;20021;-46
2023/12/27 03:44:52;;;;;;;9.20;6.57;;;;;;;;;;5073832;28;20041;-49
2023/12/27 03:47:17;;;;;;;11.90;7.43;;;;;;;;;;5074082;28;20085;-46
2023/12/27 03:49:43;;;;;;;7.75;6.00;;;;;;;;;;5081941;28;20121;-46
2023/12/27 03:52:08;;;;;;;11.23;6.82;;;;;;;;;;5075762;28;20051;-44
2023/12/27 03:54:34;;;;;;;7.13;6.40;;;;;;;;;;5078363;28;20557;-44
2023/12/27 03:56:59;;;;;;;9.38;6.82;;;;;;;;;;5077427;28;20028;-46
2023/12/27 03:59:25;;;;;;;10.30;6.57;;;;;;;;;;5081055;28;20029;-45
2023/12/27 04:01:50;;;;;;;8.45;5.97;;;;;;;;;;5074015;28;20485;-46
2023/12/27 04:04:15;;;;;;;8.45;6.50;;;;;;;;;;5075693;28;20578;-45
2023/12/27 04:06:41;;;;;;;13.70;6.80;;;;;;;;;;5074733;28;20462;-47
2023/12/27 04:09:07;;;;;;;9.00;6.15;;;;;;;;;;5075737;28;20105;-47
2023/12/27 04:11:32;;;;;;;10.77;6.97;;;;;;;;;;5076356;28;20614;-45
2023/12/27 04:13:58;;;;;;;8.73;6.97;;;;;;;;;;5072256;28;20056;-44
2023/12/27 04:16:23;;;;;;;8.80;5.35;;;;;;;;;;5073294;28;20020;-47
2023/12/27 04:18:48;;;;;;;7.18;5.82;;;;;;;;;;5080558;28;20044;-46
2023/12/27 04:21:14;;;;;;;9.98;6.15;;;;;;;;;;5086124;28;20078;-48
2023/12/27 04:23:39;;;;;;;8.88;5.93;;;;;;;;;;5052765;28;20095;-48
2023/12/27 04:26:05;;;;;;;8.82;6.43;;;;;;;;;;5070291;28;20105;-48
2023/12/27 04:28:31;;;;;;;7.00;5.25;;;;;;;;;;5063884;28;20038;-48
2023/12/27 04:30:56;;;;;;;10.35;5.35;;;;;;;;;;5073980;28;20470;-45
2023/12/27 04:33:21;;;;;;;9.40;5.40;;;;;;;;;;5076727;28;20040;-46
2023/12/27 04:35:47;;;;;;;9.75;4.60;;;;;;;;;;5079501;28;20549;-45
2023/12/27 04:38:13;;;;;;;6.80;4.22;;;;;;;;;;5081346;28;20466;-46
2023/12/27 04:40:44;;;;;;;8.23;4.72;;;;;;;;;;5084981;28;20090;-46
2023/12/27 04:43:09;;;;;;;7.38;4.95;;;;;;;;;;5076066;28;20043;-45
2023/12/27 04:45:35;;;;;;;6.63;4.43;;;;;;;;;;5081271;28;20028;-46
2023/12/27 04:48:00;;;;;;;5.40;4.15;;;;;;;;;;5080363;28;20020;-46
2023/12/27 04:50:26;;;;;;;5.97;4.05;;;;;;;;;;5077340;28;20161;-46
2023/12/27 04:52:51;;;;;;;4.55;3.88;;;;;;;;;;5080451;28;20055;-46
2023/12/27 04:55:16;;;;;;;6.65;4.28;;;;;;;;;;5064266;28;20037;-48
2023/12/27 04:57:42;;;;;;;7.38;3.72;;;;;;;;;;5082910;28;20464;-47
2023/12/27 05:00:07;;;;;;;8.00;5.28;;;;;;;;;;5077865;28;20044;-46
2023/12/27 05:02:33;;;;;;;7.22;4.25;;;;;;;;;;5078617;28;20484;-47
2023/12/27 05:04:58;;;;;;;5.13;3.47;;;;;;;;;;5085753;28;20036;-47
2023/12/27 05:07:23;;;;;;;7.50;3.17;;;;;;;;;;5083275;28;20111;-44
2023/12/27 05:09:49;;;;;;;5.75;4.25;;;;;;;;;;5084890;28;20032;-47
2023/12/27 05:12:14;;;;;;;5.38;4.18;;;;;;;;;;5079667;28;20029;-46
2023/12/27 05:14:40;;;;;;;5.30;3.05;;;;;;;;;;5076465;28;20036;-45
2023/12/27 05:17:05;;;;;;;5.20;3.88;;;;;;;;;;5080728;28;20070;-47
2023/12/27 05:19:30;;;;;;;5.38;3.28;;;;;;;;;;5074545;28;20021;-47
2023/12/27 05:21:56;;;;;;;7.22;4.07;;;;;;;;;;5093494;28;20024;-46
2023/12/27 05:24:21;;;;;;;5.78;3.45;;;;;;;;;;5063667;28;20037;-46
2023/12/27 05:26:47;;;;;;;6.22;3.90;;;;;;;;;;5089226;28;20032;-48
2023/12/27 05:29:12;;;;;;;6.65;4.57;;;;;;;;;;5083161;28;20124;-45
2023/12/27 05:31:37;;;;;;;6.75;4.22;;;;;;;;;;5077307;28;20074;-47
2023/12/27 05:34:03;;;;;;;6.25;3.80;;;;;;;;;;5074574;28;20044;-48
2023/12/27 05:36:28;;;;;;;7.03;4.00;;;;;;;;;;5089453;28;20016;-46
2023/12/27 05:38:54;;;;;;;5.60;4.07;;;;;;;;;;5077861;28;20073;-45
2023/12/27 05:41:24;;;;;;;6.03;3.30;;;;;;;;;;5079058;28;20447;-49
2023/12/27 05:43:50;;;;;;;6.65;4.95;;;;;;;;;;5080728;28;20036;-50
2023/12/27 05:46:15;;;;;;;6.15;4.47;;;;;;;;;;5092838;28;20024;-51
2023/12/27 05:48:40;;;;;;;6.40;3.90;;;;;;;;;;5079995;28;20349;-47
2023/12/27 05:51:06;;;;;;;7.75;4.53;;;;;;;;;;5082619;28;20029;-48
2023/12/27 05:53:31;;;;;;;6.28;3.97;;;;;;;;;;5080165;28;20043;-45
2023/12/27 05:55:56;;;;;;;8.18;4.85;;;;;;;;;;5078203;28;20027;-47
2023/12/27 05:58:22;;;;;;;8.38;4.20;;;;;;;;;;5092813;28;20090;-46
2023/12/27 06:00:47;;;;;;;6.85;4.50;;;;;;;;;;5082004;28;20027;-46
2023/12/27 06:03:13;;;;;;;6.45;4.18;;;;;;;;;;5078211;28;20044;-44
2023/12/27 06:05:38;;;;;;;4.88;3.92;;;;;;;;;;5053102;28;20039;-50
2023/12/27 06:08:03;;;;;;;5.60;4.57;;;;;;;;;;5075259;28;20108;-48
2023/12/27 06:10:30;;;;;;;7.53;4.38;;;;;;;;;;5080981;28;20033;-45
2023/12/27 06:12:55;;;;;;;6.00;4.53;;;;;;;;;;5071068;28;20036;-49
2023/12/27 06:15:22;;;;;;;7.15;4.78;;;;;;;;;;5075827;28;20035;-44
2023/12/27 06:17:47;;;;;;;8.63;5.20;;;;;;;;;;5078808;28;20020;-46
2023/12/27 06:20:12;;;;;;;6.50;4.88;;;;;;;;;;5085929;28;21170;-47
2023/12/27 06:22:38;;;;;;;8.05;5.00;;;;;;;;;;5060086;28;20091;-46
2023/12/27 06:25:04;;;;;;;6.53;4.38;;;;;;;;;;5085311;28;20056;-44
2023/12/27 06:27:30;;;;;;;8.82;4.60;;;;;;;;;;5081992;28;20424;-45
2023/12/27 06:29:55;;;;;;;7.43;4.40;;;;;;;;;;5074388;28;20040;-48
2023/12/27 06:32:20;;;;;;;6.65;4.45;;;;;;;;;;5080044;28;20025;-45
2023/12/27 06:34:46;;;;;;;7.43;4.55;;;;;;;;;;5078492;28;20058;-46
2023/12/27 06:37:11;;;;;;;5.97;4.90;;;;;;;;;;5074543;28;20036;-47
2023/12/27 06:39:37;;;;;;;6.47;4.53;;;;;;;;;;5076107;28;20071;-46
2023/12/27 06:42:02;;;;;;;6.65;4.85;;;;;;;;;;5075001;28;20059;-46
2023/12/27 06:44:28;;;;;;;5.60;3.88;;;;;;;;;;5075097;28;20044;-46
2023/12/27 06:46:53;;;;;;;6.50;4.43;;;;;;;;;;5075455;28;20036;-46
2023/12/27 06:49:19;;;;;;;8.52;5.32;;;;;;;;;;5075923;28;20040;-48
2023/12/27 06:51:44;;;;;;;8.02;4.07;;;;;;;;;;5079007;28;20451;-46
2023/12/27 06:54:10;;;;;;;6.13;3.85;;;;;;;;;;5087164;28;20048;-45
2023/12/27 06:56:38;;;;;;;6.40;4.05;;;;;;;;;;5075365;28;20143;-49
2023/12/27 06:59:04;;;;;;;5.70;4.38;;;;;;;;;;5075613;28;20044;-47
2023/12/27 07:01:29;;;;;;;5.13;3.90;;;;;;;;;;5075636;28;20025;-44
2023/12/27 07:03:55;;;;;;;5.53;4.22;;;;;;;;;;5075287;28;20102;-46
2023/12/27 07:06:20;;;;;;;6.70;5.15;;;;;;;;;;5080098;28;20032;-49
2023/12/27 07:08:46;;;;;;;7.28;4.70;;;;;;;;;;5083257;28;20410;-46
2023/12/27 07:11:18;;;;;;;5.88;4.97;;;;;;;;;;5073379;28;20048;-47
2023/12/27 07:13:46;;;;;;;4.95;3.75;;;;;;;;;;5073209;28;20081;-46
2023/12/27 07:16:11;;;;;;;6.00;4.18;;;;;;;;;;5083643;28;20559;-49
2023/12/27 07:18:37;;;;;;;6.00;4.15;;;;;;;;;;5080471;28;20028;-45
2023/12/27 07:21:04;;;;;;;6.93;4.00;;;;;;;;;;5092174;28;20094;-46
2023/12/27 07:23:30;;;;;;;4.45;3.47;;;;;;;;;;5074322;28;20033;-47
2023/12/27 07:25:55;;;;;;;7.43;4.93;;;;;;;;;;5070857;28;20024;-45
2023/12/27 07:28:20;;;;;;;8.27;4.63;;;;;;;;;;5082273;28;20036;-52
2023/12/27 07:30:46;;;;;;;8.38;5.22;;;;;;;;;;5084277;28;20096;-49
2023/12/27 07:33:15;;;;;;;7.75;5.15;;;;;;;;;;5074723;28;20074;-49
2023/12/27 07:35:42;;;;;;;10.38;6.22;;;;;;;;;;5074183;28;20036;-45
2023/12/27 07:38:08;;;;;;;10.43;7.35;;;;;;;;;;5074585;28;20052;-48
2023/12/27 07:40:34;;;;;;;10.85;6.90;;;;;;;;;;5085817;28;20411;-47
2023/12/27 07:42:59;;;;;;;8.15;6.20;;;;;;;;;;5076232;28;20016;-46
2023/12/27 07:45:25;;;;;;;11.45;8.18;;;;;;;;;;5073209;28;20040;-45
2023/12/27 07:47:50;;;;;;;11.85;7.80;;;;;;;;;;5075125;28;20028;-47
2023/12/27 07:50:16;;;;;;;11.30;7.00;;;;;;;;;;5072510;28;20043;-48
2023/12/27 07:52:42;;;;;;;10.43;6.82;;;;;;;;;;5076036;28;20470;-47
2023/12/27 07:55:08;;;;;;;8.00;5.45;;;;;;;;;;5074092;28;20064;-46
2023/12/27 07:57:33;;;;;;;7.45;4.82;;;;;;;;;;5075643;28;20030;-47
2023/12/27 07:59:59;;;;;;;8.13;4.85;;;;;;;;;;5077600;28;20138;-46
2023/12/27 08:02:25;;;;;;;7.45;4.55;;;;;;;;;;5073806;28;20020;-46
2023/12/27 08:04:50;;;;;;;6.45;4.93;;;;;;;;;;5072270;28;20033;-48
2023/12/27 08:07:16;;;;;;;6.80;5.25;;;;;;;;;;5076863;28;20016;-47
2023/12/27 08:09:41;;;;;;;6.82;4.93;;;;;;;;;;5077568;28;20028;-48
2023/12/27 08:12:08;;;;;;;6.50;5.07;;;;;;;;;;5090329;28;20040;-45
2023/12/27 08:14:33;;;;;;;5.97;5.20;;;;;;;;;;5074729;28;20094;-45
2023/12/27 08:16:59;;;;;;;7.15;4.15;;;;;;;;;;5078035;28;20024;-47
2023/12/27 08:19:24;;;;;;;6.57;4.72;;;;;;;;;;5074280;28;20060;-46
2023/12/27 08:21:49;;;;;;;8.23;4.50;;;;;;;;;;5073116;28;20432;-47
2023/12/27 08:24:15;;;;;;;10.02;6.10;;;;;;;;;;5071763;28;20033;-47
2023/12/27 08:26:40;;;;;;;6.05;4.13;;;;;;;;;;5080851;28;20023;-47
2023/12/27 08:29:06;;;;;;;7.07;4.85;;;;;;;;;;5067188;28;20045;-45
2023/12/27 08:31:31;;;;;;;6.10;4.40;;;;;;;;;;5076186;28;20020;-45
2023/12/27 08:33:59;;;;;;;8.32;4.63;;;;;;;;;;5074641;28;20058;-45
2023/12/27 08:36:25;;;;;;;6.78;5.22;;;;;;;;;;5075662;28;20028;-44
2023/12/27 08:38:51;;;;;;;10.95;5.35;;;;;;;;;;5076401;28;20031;-49
2023/12/27 08:41:16;;;;;;;6.78;4.38;;;;;;;;;;5076159;28;20024;-47
2023/12/27 08:43:42;;;;;;;7.57;5.25;;;;;;;;;;5081538;28;20399;-46
2023/12/27 08:46:11;;;;;;;9.48;5.18;;;;;;;;;;5073526;28;20037;-49
2023/12/27 08:48:37;;;;;;;8.43;4.20;;;;;;;;;;5073847;28;20114;-47
2023/12/27 08:51:02;;;;;;;6.05;3.92;;;;;;;;;;5074606;28;20049;-45
2023/12/27 08:53:29;;;;;;;4.53;3.58;;;;;;;;;;5072911;28;20040;-45
2023/12/27 08:55:55;;;;;;;7.78;3.63;;;;;;;;;;5072882;28;20028;-46
2023/12/27 08:58:20;;;;;;;10.30;5.30;;;;;;;;;;5066143;28;20037;-48
2023/12/27 09:00:46;;;;;;;7.50;4.53;;;;;;;;;;5077872;28;20020;-48
2023/12/27 09:03:11;;;;;;;6.60;4.45;;;;;;;;;;5075850;28;20386;-47
2023/12/27 09:05:38;;;;;;;7.47;4.53;;;;;;;;;;5072645;28;20044;-46
2023/12/27 09:08:03;;;;;;;5.95;4.03;;;;;;;;;;5083103;28;20615;-47
2023/12/27 09:10:29;;;;;;;6.55;4.18;;;;;;;;;;5075647;28;20036;-47
2023/12/27 09:12:54;;;;;;;6.68;4.53;;;;;;;;;;5074038;28;20104;-42
2023/12/27 09:15:19;;;;;;;6.47;3.58;;;;;;;;;;5071582;28;20029;-46
2023/12/27 09:17:45;;;;;;;6.35;4.65;;;;;;;;;;5069432;28;20028;-46
2023/12/27 09:20:11;;;;;;;5.30;3.88;;;;;;;;;;5076497;28;20121;-46
2023/12/27 09:22:36;;;;;;;6.43;4.00;;;;;;;;;;5081344;28;20043;-48
2023/12/27 09:25:03;;;;;;;8.45;4.53;;;;;;;;;;5077546;28;20506;-48
2023/12/27 09:27:29;;;;;;;10.07;5.25;;;;;;;;;;5087220;28;20060;-44
2023/12/27 09:29:55;;;;;;;12.10;4.85;;;;;;;;;;5092062;28;20082;-50
2023/12/27 09:32:20;;;;;;;6.65;4.72;;;;;;;;;;5077952;28;20029;-49
2023/12/27 09:34:46;;;;;;;7.47;4.88;;;;;;;;;;5073962;28;20082;-45
2023/12/27 09:37:11;;;;;;;9.20;4.90;;;;;;;;;;5073817;28;20103;-46
2023/12/27 09:39:37;;;;;;;11.77;6.68;;;;;;;;;;5079524;28;20039;-45
2023/12/27 09:42:03;;;;;;;8.43;4.38;;;;;;;;;;5082675;28;20051;-48
2023/12/27 09:44:29;;;;;;;7.53;4.78;;;;;;;;;;5082431;28;20040;-45
2023/12/27 09:46:55;;;;;;;27.42;12.65;;;;;;;;;;5074643;28;20029;-47
2023/12/27 09:49:22;;;;;;;7.20;4.63;;;;;;;;;;5075329;28;20117;-47
2023/12/27 09:51:48;;;;;;;5.55;4.40;;;;;;;;;;5081777;28;20039;-46
2023/12/27 09:54:16;;;;;;;7.07;4.38;;;;;;;;;;5076528;28;20498;-49
2023/12/27 09:56:43;;;;;;;5.55;3.78;;;;;;;;;;5074903;28;20040;-46
2023/12/27 09:59:13;;;;;;;5.22;3.08;;;;;;;;;;5075545;28;20040;-50
2023/12/27 10:01:40;;;;;;;47.78;20.73;;;;;;;;;;5072925;28;20043;-45
2023/12/27 10:04:23;;;;;;;27.63;12.98;;;;;;;;;;5072181;28;20564;-47
2023/12/27 10:06:49;;;;;;;6.53;4.65;;;;;;;;;;5071559;28;20082;-44
2023/12/27 10:09:15;;;;;;;5.53;3.58;;;;;;;;;;5075354;28;20052;-45
2023/12/27 10:11:43;;;;;;;69.25;34.05;;;;;;;;;;5079119;28;20020;-44
2023/12/27 10:14:10;;;;;;;44.53;21.83;;;;;;;;;;5074364;28;20064;-44
2023/12/27 10:16:38;;;;;;;10.20;5.22;;;;;;;;;;5079927;28;20032;-46
2023/12/27 10:19:05;;;;;;;18.83;9.52;;;;;;;;;;5079598;28;20036;-50
2023/12/27 10:21:43;;;;;;;16.17;9.65;;;;;;;;;;5072945;28;20025;-44
2023/12/27 10:24:12;;;;;;;24.10;10.82;;;;;;;;;;5090380;28;20051;-46
2023/12/27 10:26:37;;;;;;;6.45;4.57;;;;;;;;;;5067969;28;20473;-46
2023/12/27 10:29:04;;;;;;;19.23;8.77;;;;;;;;;;5071572;28;20033;-45
2023/12/27 10:31:29;;;;;;;12.90;8.55;;;;;;;;;;5072031;28;20032;-45
2023/12/27 10:33:55;;;;;;;9.48;4.60;;;;;;;;;;5084298;28;20076;-48
2023/12/27 10:36:21;;;;;;;18.30;10.55;;;;;;;;;;5068663;28;20103;-46
2023/12/27 10:38:46;;;;;;;50.55;20.27;;;;;;;;;;5069380;28;20116;-46
2023/12/27 10:41:12;;;;;;;13.73;6.75;;;;;;;;;;5071999;28;20046;-47
2023/12/27 10:43:38;;;;;;;17.23;8.77;;;;;;;;;;5070820;28;20072;-44
2023/12/27 10:46:07;;;;;;;35.42;17.05;;;;;;;;;;5070587;28;20475;-48
2023/12/27 10:48:33;;;;;;;32.67;14.55;;;;;;;;;;5074697;28;20104;-45
2023/12/27 10:50:59;;;;;;;27.05;12.52;;;;;;;;;;5072205;28;20155;-52
2023/12/27 10:53:29;;;;;;;18.45;9.77;;;;;;;;;;5073877;28;20041;-45
2023/12/27 10:55:59;;;;;;;9.82;6.50;;;;;;;;;;5074723;28;20032;-48
2023/12/27 10:58:25;;;;;;;12.05;7.32;;;;;;;;;;5073613;28;20028;-47
2023/12/27 11:00:52;;;;;;;11.73;6.32;;;;;;;;;;5074611;28;20020;-46
2023/12/27 11:03:18;;;;;;;10.13;4.93;;;;;;;;;;5073453;28;21968;-44
2023/12/27 11:05:45;;;;;;;5.30;3.80;;;;;;;;;;5068691;28;20043;-49
2023/12/27 11:08:13;;;;;;;4.10;2.80;;;;;;;;;;5077432;28;20365;-44
2023/12/27 11:10:40;;;;;;;5.22;3.10;;;;;;;;;;5085495;28;20028;-45
2023/12/27 11:13:10;;;;;;;7.00;2.63;;;;;;;;;;5074589;28;20047;-47
2023/12/27 11:15:37;;;;;;;4.78;3.30;;;;;;;;;;5078289;28;20028;-45
2023/12/27 11:18:05;;;;;;;4.55;3.10;;;;;;;;;;5075050;28;20118;-45
2023/12/27 11:20:32;;;;;;;6.25;2.72;;;;;;;;;;5080973;28;20043;-44
2023/12/27 11:22:57;;;;;;;7.55;3.97;;;;;;;;;;5060842;28;20501;-45
2023/12/27 11:25:23;;;;;;;5.35;3.65;;;;;;;;;;5075134;28;20032;-46
2023/12/27 11:27:48;;;;;;;6.15;2.63;;;;;;;;;;5080115;28;20111;-45
2023/12/27 11:30:14;;;;;;;5.80;2.47;;;;;;;;;;5074678;28;20040;-46
2023/12/27 11:32:41;;;;;;;7.60;3.88;;;;;;;;;;5068273;28;20111;-46
2023/12/27 11:35:21;;;;;;;6.43;3.20;;;;;;;;;;5073781;28;20086;-47
2023/12/27 11:37:47;;;;;;;6.05;3.67;;;;;;;;;;5077939;28;20026;-45
2023/12/27 11:40:12;;;;;;;3.50;3.10;;;;;;;;;;5078738;28;20036;-45
2023/12/27 11:42:38;;;;;;;6.45;3.13;;;;;;;;;;5074379;28;20043;-46
2023/12/27 11:45:04;;;;;;;5.13;2.92;;;;;;;;;;5073667;28;20416;-45
2023/12/27 11:47:30;;;;;;;5.28;2.90;;;;;;;;;;5074880;28;20487;-50
2023/12/27 11:50:13;;;;;;;4.35;3.20;;;;;;;;;;5083066;28;20128;-45
2023/12/27 11:52:46;;;;;;;5.20;3.53;;;;;;;;;;5073561;28;20052;-46
2023/12/27 11:55:15;;;;;;;5.38;3.42;;;;;;;;;;5068671;28;20083;-51
2023/12/27 11:57:42;;;;;;;3.78;3.10;;;;;;;;;;5081540;28;20132;-46
2023/12/27 12:00:11;;;;;;;5.03;3.13;;;;;;;;;;5078731;28;20394;-46
2023/12/27 12:02:39;;;;;;;;;;;;;;;;;;5078623;28;20020;-48
2023/12/27 12:05:19;;;;;;;5.50;3.10;;;;;;;;;;5058265;28;19946;-47
2023/12/27 12:07:56;;;;;;;4.82;2.80;;;;;;;;;;5074715;28;20385;-46
2023/12/27 12:10:23;;;;;;;7.45;3.00;;;;;;;;;;5079480;28;20086;-49
2023/12/27 12:12:51;;;;;;;5.10;3.08;;;;;;;;;;5073377;28;20031;-49
2023/12/27 12:15:20;;;;;;;5.18;3.40;;;;;;;;;;5074671;28;20044;-46
2023/12/27 12:17:48;;;;;;;4.53;2.88;;;;;;;;;;5077060;28;20035;-48
2023/12/27 12:20:13;;;;;;;4.10;2.60;;;;;;;;;;5069796;28;20035;-45
2023/12/27 12:22:39;;;;;;;4.05;2.95;;;;;;;;;;5066823;28;20059;-48
2023/12/27 12:25:07;;;;;;;6.88;3.78;;;;;;;;;;5070152;28;20040;-45
2023/12/27 12:27:33;;;;;;;6.40;3.58;;;;;;;;;;5075298;28;20029;-48
2023/12/27 12:29:58;;;;;;;5.68;3.47;;;;;;;;;;5074963;28;20090;-46
2023/12/27 12:32:25;;;;;;;4.95;2.80;;;;;;;;;;5072595;28;20058;-47
2023/12/27 12:34:50;;;;;;;6.05;3.08;;;;;;;;;;5078956;28;20101;-49
2023/12/27 12:37:17;;;;;;;6.93;3.33;;;;;;;;;;5073169;28;20040;-49
2023/12/27 12:39:44;;;;;;;5.60;3.80;;;;;;;;;;5074220;28;20032;-48
2023/12/27 12:42:09;;;;;;;6.70;3.47;;;;;;;;;;5075708;28;20032;-47
2023/12/27 12:44:36;;;;;;;6.97;3.15;;;;;;;;;;5072267;28;20048;-47
2023/12/27 12:47:02;;;;;;;7.10;2.95;;;;;;;;;;5074816;28;20035;-50
2023/12/27 12:49:29;;;;;;;7.05;3.88;;;;;;;;;;5070014;28;20044;-47
2023/12/27 12:52:04;;;;;;;6.47;3.58;;;;;;;;;;5073254;28;20036;-48
2023/12/27 12:54:30;;;;;;;4.75;3.20;;;;;;;;;;5074406;28;20040;-45
2023/12/27 12:57:01;;;;;;;4.90;4.38;;;;;;;;;;5076206;28;20644;-46
2023/12/27 12:59:27;;;;;;;4.63;3.63;;;;;;;;;;5075243;28;20040;-44
2023/12/27 13:01:54;;;;;;;4.78;3.08;;;;;;;;;;5074132;28;20028;-49
2023/12/27 13:04:24;;;;;;;5.22;2.90;;;;;;;;;;5072695;28;20047;-47
2023/12/27 13:06:58;;;;;;;7.32;2.80;;;;;;;;;;5082299;28;20024;-45
2023/12/27 13:09:23;;;;;;;5.93;3.00;;;;;;;;;;5078340;28;20106;-46
2023/12/27 13:11:49;;;;;;;5.55;4.10;;;;;;;;;;5078106;28;20021;-45
2023/12/27 13:14:15;;;;;;;3.67;2.83;;;;;;;;;;5081031;28;20039;-45
2023/12/27 13:16:41;;;;;;;5.70;3.38;;;;;;;;;;5077262;28;20047;-46
2023/12/27 13:19:06;;;;;;;5.38;2.85;;;;;;;;;;5077255;28;20505;-48
2023/12/27 13:21:32;;;;;;;7.50;2.90;;;;;;;;;;5074822;28;20467;-47
2023/12/27 13:23:58;;;;;;;7.80;3.72;;;;;;;;;;5088952;28;20097;-46
2023/12/27 13:26:23;;;;;;;6.40;2.97;;;;;;;;;;5084619;28;20025;-45
2023/12/27 13:28:49;;;;;;;5.68;2.97;;;;;;;;;;5077146;28;20041;-44
2023/12/27 13:31:15;;;;;;;4.80;2.50;;;;;;;;;;5072861;28;20091;-46
2023/12/27 13:33:41;;;;;;;4.15;2.33;;;;;;;;;;5080112;28;20070;-50
2023/12/27 13:36:07;;;;;;;4.35;2.58;;;;;;;;;;5084283;28;20093;-47
2023/12/27 13:38:33;;;;;;;4.68;3.03;;;;;;;;;;5077072;28;20035;-47
2023/12/27 13:40:58;;;;;;;4.50;2.10;;;;;;;;;;5084992;28;20016;-47
2023/12/27 13:43:23;;;;;;;3.22;2.55;;;;;;;;;;5074789;28;20033;-49
2023/12/27 13:45:49;;;;;;;3.25;1.90;;;;;;;;;;5080147;28;20031;-46
2023/12/27 13:48:14;;;;;;;4.95;2.00;;;;;;;;;;5081072;28;20056;-45
2023/12/27 13:50:39;;;;;;;3.92;2.45;;;;;;;;;;5076343;28;20025;-45
2023/12/27 13:53:05;;;;;;;3.00;2.00;;;;;;;;;;5076708;28;20051;-48
2023/12/27 13:55:32;;;;;;;5.47;1.65;;;;;;;;;;5076236;28;20115;-48
2023/12/27 13:57:57;;;;;;;5.40;2.30;;;;;;;;;;5075485;28;20051;-46
2023/12/27 14:00:23;;;;;;;2.83;1.90;;;;;;;;;;5064279;28;20016;-46
2023/12/27 14:02:51;;;;;;;3.47;1.70;;;;;;;;;;5084502;28;20043;-49
2023/12/27 14:05:17;;;;;;;4.88;1.83;;;;;;;;;;5080868;28;20091;-49
2023/12/27 14:07:43;;;;;;;5.50;1.88;;;;;;;;;;5091208;28;20478;-45
2023/12/27 14:10:09;;;;;;;4.60;2.13;;;;;;;;;;5073021;28;20041;-49
2023/12/27 14:12:41;;;;;;;4.03;2.08;;;;;;;;;;5090439;28;20544;-47
2023/12/27 14:15:08;;;;;;;3.13;1.65;;;;;;;;;;5077807;28;20055;-47
2023/12/27 14:17:33;;;;;;;4.90;2.63;;;;;;;;;;5077021;28;20055;-46
2023/12/27 14:19:59;;;;;;;3.25;1.65;;;;;;;;;;5082277;28;20036;-45
2023/12/27 14:22:24;;;;;;;2.50;1.63;;;;;;;;;;5079328;28;20058;-46
2023/12/27 14:24:50;;;;;;;3.17;2.00;;;;;;;;;;5076297;28;20040;-46
2023/12/27 14:27:15;;;;;;;2.97;1.50;;;;;;;;;;5074681;28;20078;-49
2023/12/27 14:29:40;;;;;;;6.10;2.40;;;;;;;;;;5056367;28;20549;-45
2023/12/27 14:32:06;;;;;;;2.38;1.60;;;;;;;;;;5081472;28;20035;-47